Observations for SYDNEY INTL AIRPORT, Australia (YSSY)

YSSY 231100Z 02005KT CAVOK 19/13 Q1019 NOSIG
YSSY 231030Z 03006KT CAVOK 19/14 Q1018 NOSIG
YSSY 231000Z 03006KT CAVOK 18/13 Q1018 NOSIG
YSSY 230930Z 05007KT CAVOK 19/14 Q1018 NOSIG
YSSY 230900Z 05008KT CAVOK 18/13 Q1017 NOSIG
YSSY 230830Z 06009KT 9999 FEW022 18/12 Q1017 NOSIG  
YSSY 230800Z 07010KT 9999 FEW022 18/12 Q1017 NOSIG  
YSSY 230730Z 09011KT 9999 FEW022 19/12 Q1017 NOSIG  
YSSY 230700Z 09010KT 9999 FEW022 19/13 Q1017 NOSIG  
YSSY 230630Z 10012KT 9999 FEW042 20/13 Q1016 NOSIG  
YSSY 230600Z 14012KT 9999 FEW042 21/13 Q1016 NOSIG  
YSSY 230530Z 14012KT 9999 FEW042 20/13 Q1017 NOSIG  
YSSY 230500Z 14013KT 9999 FEW040 20/12 Q1017 NOSIG  
YSSY 230430Z 13012KT 9999 FEW040 20/12 Q1017 NOSIG  
YSSY 230400Z 13012KT 9999 FEW040 21/10 Q1017 NOSIG  
YSSY 230330Z 12012KT 9999 FEW040 20/10 Q1017 NOSIG  
YSSY 230300Z 15012KT 9999 FEW037 20/11 Q1017 NOSIG  
YSSY 230230Z 16011KT 9999 FEW036 19/11 Q1017 NOSIG  
YSSY 230200Z 17013KT 9999 FEW036 19/12 Q1018 NOSIG  
YSSY 230130Z 17014KT 9999 FEW018 19/12 Q1018 NOSIG  
YSSY 230100Z 17014KT 9999 FEW018 19/12 Q1018 NOSIG  
YSSY 230030Z 17013KT 9999 FEW035 19/12 Q1018 NOSIG  
YSSY 230000Z 17013KT 9999 FEW030 19/12 Q1018 NOSIG  
YSSY 222330Z 17014KT 9999 FEW032 18/12 Q1018 NOSIG  
YSSY 222300Z 18012KT 9999 FEW026 18/12 Q1018 NOSIG  
YSSY 222230Z 19012KT 9999 SCT025 18/12 Q1018 NOSIG  
YSSY 222200Z 19013KT 9999 SCT025 18/13 Q1018 NOSIG  
YSSY 222130Z 23006KT 9999 FEW025 16/12 Q1017 NOSIG  
YSSY 222100Z 25006KT 9999 FEW028 16/11 Q1017 NOSIG  
YSSY 222030Z 25007KT 9999 FEW027 15/11 Q1017 FM2030 21008KT 9999 SCT025 
YSSY 222000Z 28006KT 9999 FEW022 14/11 Q1017 FM2000 21008KT 9999 SCT025 
YSSY 221930Z 25007KT 9999 FEW018 13/11 Q1017 FM1930 21008KT 9999 SCT025 
YSSY 221900Z 32005KT 9999 FEW018 13/11 Q1016 FM1930 21008KT 9999 FEW020 
YSSY 221830Z 23007KT 9999 FEW022 14/11 Q1016 NOSIG  
YSSY 221800Z 25006KT 9999 FEW025 13/11 Q1016 NOSIG  
YSSY 221730Z 25007KT 9999 FEW022 14/11 Q1015 NOSIG  
YSSY 221700Z 24007KT 9999 FEW022 SCT058 14/12 Q1015 NOSIG   
YSSY 221630Z 24008KT 9999 FEW022 15/12 Q1015 NOSIG  
YSSY 221600Z 22011KT 9999 VCSH FEW022 SCT240 15/12 Q1016 NOSIG  
YSSY 221530Z 23010KT 9999 VCSH FEW022 BKN240 15/12 Q1016 NOSIG  
YSSY 221500Z 24010KT 9999 VCSH FEW022 BKN190 15/12 Q1016 NOSIG  
YSSY 221400Z 27008KT 9999 FEW028 SCT080 BKN150 15/12 Q1016 NOSIG
YSSY 221330Z 30007KT 270V330 9999 FEW022 SCT080 BKN140 15/13 Q1016 NOSIG
YSSY 221300Z 29005KT 9999 FEW022 SCT080 BKN130 16/13 Q1016 NOSIG
YSSY 221230Z 23005KT 9999 FEW022 SCT078 BKN130 16/13 Q1016 NOSIG
YSSY 221200Z 23005KT 9999 FEW022 SCT050 BKN150 16/13 Q1016 NOSIG
YSSY 221130Z 22006KT 160V240 9999 FEW022 SCT070 BKN180 15/12 Q1016 NOSIG
YSSY 221100Z 19006KT 9999 FEW022 SCT060 BKN100 15/12 Q1016 NOSIG
YSSY 221030Z 13003KT 9999 FEW022 BKN060 BKN100 15/12 Q1015 INTER 1030/1200 4000 SHRA BKN010